Time;durP1;ratioP1;P1;durP2;ratioP2;P2;SDS_P1;SDS_P2;PMS_P1;PMS_P2;Temp;Humidity;BMP_temperature;BMP_pressure;BME280_temperature;BME280_humidity;BME280_pressure;Samples;Min_cycle;Max_cycle;Signal;HPM_P1;HPM_P2
2022/11/05 00:11:01;;;;;;;5.53;3.80;;;11.20;79.30;;;13.94;57.69;101187.72;4880322;29;20264;-60
2022/11/05 00:19:07;;;;;;;6.53;4.00;;;11.20;78.80;;;13.94;57.62;101193.00;4898816;29;20187;-59
2022/11/05 00:27:10;;;;;;;5.63;3.83;;;11.10;79.00;;;13.89;57.49;101200.69;4898776;29;20211;-60
2022/11/05 00:29:38;;;;;;;7.77;4.07;;;11.10;78.80;;;13.90;57.43;101202.34;4898844;29;20677;-59
2022/11/05 00:32:05;;;;;;;5.77;3.67;;;11.10;78.70;;;13.90;57.74;101207.63;4893407;29;20220;-59
2022/11/05 00:34:32;;;;;;;8.00;4.40;;;11.10;79.20;;;13.91;57.79;101203.97;4897909;29;20226;-59
2022/11/05 00:36:59;;;;;;;5.50;3.93;;;11.10;79.00;;;13.91;57.96;101209.25;4898914;29;20519;-58
2022/11/05 00:39:26;;;;;;;7.67;4.27;;;11.10;79.30;;;13.94;57.87;101214.19;4898656;29;20199;-58
2022/11/05 00:45:00;;;;;;;8.50;4.30;;;11.10;78.80;;;13.96;57.52;101220.13;4889030;29;20207;-60
2022/11/05 00:50:13;;;;;;;8.90;4.00;;;11.10;78.50;;;13.89;57.36;101213.91;4896855;29;20516;-59
2022/11/05 00:52:56;;;;;;;5.67;3.87;;;11.10;78.40;;;13.88;57.42;101214.94;4898063;29;20215;-60
2022/11/05 00:55:27;;;;;;;9.30;3.27;;;11.10;78.40;;;13.86;57.61;101211.66;4897790;29;20287;-58
2022/11/05 00:57:56;;;;;;;10.27;4.47;;;11.10;78.50;;;13.83;57.22;101215.50;4898069;29;20231;-58
2022/11/05 01:00:28;;;;;;;7.30;3.80;;;11.10;78.20;;;13.80;57.25;101221.16;4897831;29;20195;-59
2022/11/05 01:02:58;;;;;;;8.77;4.27;;;11.10;78.20;;;13.77;56.94;101229.44;4897792;29;20222;-59
2022/11/05 01:05:26;;;;;;;7.87;4.07;;;11.00;78.10;;;13.74;57.23;101223.72;4898823;29;20242;-58
2022/11/05 01:07:54;;;;;;;8.00;4.03;;;11.00;78.20;;;13.69;57.13;101223.44;4898463;29;20260;-58
2022/11/05 01:10:22;;;;;;;7.73;3.67;;;10.90;78.20;;;13.65;57.07;101228.25;4897992;29;20195;-60
2022/11/05 01:12:49;;;;;;;5.70;3.57;;;10.90;78.20;;;13.62;57.34;101233.09;4898040;29;20222;-59
2022/11/05 01:15:18;;;;;;;6.47;3.47;;;10.80;78.30;;;13.60;57.44;101237.75;4897918;29;20255;-58
2022/11/05 01:17:46;;;;;;;8.33;3.80;;;10.80;78.60;;;13.57;57.27;101238.94;4898027;29;20250;-59
2022/11/05 01:20:14;;;;;;;9.50;3.83;;;10.80;78.60;;;13.54;57.41;101245.41;4897948;29;20202;-61
2022/11/05 01:22:41;;;;;;;8.70;3.63;;;10.70;78.70;;;13.54;57.38;101249.88;4897494;29;20270;-61
2022/11/05 01:25:09;;;;;;;6.97;4.03;;;10.70;78.70;;;13.54;57.49;101250.69;4898115;29;20656;-60
2022/11/05 01:27:36;;;;;;;7.80;3.47;;;10.70;78.80;;;13.52;57.42;101246.59;4898330;29;20199;-60
2022/11/05 01:30:07;;;;;;;5.10;3.43;;;10.70;78.80;;;13.50;57.42;101249.41;4898177;29;20210;-61
2022/11/05 01:32:35;;;;;;;9.33;3.87;;;10.70;78.70;;;13.49;57.41;101253.06;4897634;29;20227;-59
2022/11/05 01:35:06;;;;;;;5.73;3.53;;;10.70;78.70;;;13.47;57.43;101248.94;4898697;29;20254;-60
2022/11/05 01:37:34;;;;;;;8.97;3.53;;;10.70;78.70;;;13.46;57.56;101249.94;4898265;29;20203;-59
2022/11/05 01:40:02;;;;;;;9.40;4.40;;;10.60;78.80;;;13.43;57.42;101259.06;4901571;29;20199;-61
2022/11/05 01:42:31;;;;;;;6.53;3.47;;;10.60;78.60;;;13.41;57.55;101255.78;4901710;29;20227;-59
2022/11/05 01:45:09;;;;;;;10.43;4.20;;;10.60;78.70;;;13.40;57.70;101251.50;4901928;29;20224;-60
2022/11/05 01:47:55;;;;;;;11.40;4.20;;;10.60;79.60;;;13.37;57.58;101254.50;4901616;29;20270;-59
2022/11/05 01:50:42;;;;;;;6.53;4.00;;;10.60;79.00;;;13.35;57.56;101245.94;4901679;29;20244;-61
2022/11/05 01:53:22;;;;;;;4.90;3.47;;;10.50;78.80;;;13.34;57.73;101248.72;4901880;29;20199;-59
2022/11/05 01:55:57;;;;;;;7.77;3.57;;;10.60;79.10;;;13.36;57.53;101252.84;4901297;29;20644;-59
2022/11/05 01:58:33;;;;;;;4.03;3.30;;;10.50;78.90;;;13.34;57.53;101259.31;4901788;29;20681;-59
2022/11/05 02:01:02;;;;;;;9.53;3.90;;;10.50;78.70;;;13.32;57.60;101246.28;4900284;29;20277;-59
2022/11/05 02:03:30;;;;;;;12.40;4.30;;;10.50;78.70;;;13.32;57.22;101256.84;4901307;29;20211;-59
2022/11/05 02:06:01;;;;;;;6.30;3.87;;;10.50;78.70;;;13.27;57.50;101253.94;4900900;29;20206;-60
2022/11/05 02:08:51;;;;;;;7.00;3.70;;;10.50;78.50;;;13.21;57.43;101257.31;4901114;29;20195;-59
2022/11/05 02:11:19;;;;;;;10.20;4.00;;;10.40;78.40;;;13.21;57.42;101246.72;4882753;29;20220;-60
2022/11/05 02:13:47;;;;;;;7.23;3.60;;;10.40;78.40;;;13.19;57.34;101251.34;4882955;29;20248;-60
2022/11/05 02:16:30;;;;;;;5.07;3.67;;;10.40;78.40;;;13.18;57.48;101249.72;4882889;29;20200;-61
2022/11/05 02:19:12;;;;;;;8.30;3.63;;;10.40;78.40;;;13.18;57.27;101244.44;4881493;29;20195;-60
2022/11/05 02:22:18;;;;;;;10.33;4.10;;;10.40;78.40;;;13.13;57.36;101251.25;4898427;29;20584;-60
2022/11/05 02:25:33;;;;;;;9.97;3.60;;;10.40;78.40;;;13.09;57.26;101247.31;4900825;29;20195;-59
2022/11/05 02:28:31;;;;;;;6.67;3.37;;;10.40;78.50;;;13.10;57.65;101247.13;4882347;29;20680;-60
2022/11/05 02:31:08;;;;;;;6.37;3.13;;;10.40;78.70;;;13.17;57.50;101258.63;4882114;29;20216;-59
2022/11/05 02:33:55;;;;;;;7.80;3.97;;;10.40;78.80;;;13.23;57.84;101252.66;4887211;29;20258;-60
2022/11/05 02:36:35;;;;;;;11.83;4.27;;;10.40;78.70;;;13.27;57.48;101258.38;4901221;29;20187;-60
2022/11/05 02:39:25;;;;;;;6.77;4.13;;;10.50;78.40;;;13.27;57.22;101269.78;4901114;29;20267;-58
2022/11/05 02:42:03;;;;;;;6.10;3.77;;;10.50;78.00;;;13.24;57.06;101264.84;4900511;29;20223;-59
2022/11/05 02:44:46;;;;;;;6.20;3.80;;;10.50;77.80;;;13.22;56.86;101274.78;4901122;29;20243;-58
2022/11/05 02:47:28;;;;;;;6.83;3.63;;;10.50;77.60;;;13.18;56.83;101270.88;4900711;29;20259;-59
2022/11/05 02:50:11;;;;;;;8.20;3.70;;;10.40;77.50;;;13.13;56.73;101264.47;4900432;29;20290;-61
2022/11/05 02:52:49;;;;;;;7.60;3.63;;;10.40;77.50;;;13.09;57.02;101261.38;4900258;29;20617;-57
2022/11/05 02:55:25;;;;;;;7.03;3.70;;;10.30;77.50;;;13.07;56.95;101262.53;4899749;29;20211;-61
2022/11/05 02:57:53;;;;;;;6.53;3.87;;;10.30;77.80;;;13.07;57.17;101268.66;4900012;29;20212;-58
2022/11/05 03:00:51;;;;;;;8.30;4.60;;;10.30;77.80;;;13.04;57.85;101262.84;4900016;29;20251;-60
2022/11/05 03:03:34;;;;;;;7.13;3.57;;;10.30;78.90;;;13.11;57.74;101264.66;4842528;29;20253;-61
2022/11/05 03:06:35;;;;;;;8.43;3.70;;;10.40;79.00;;;13.18;57.64;101255.00;4879373;29;20219;-60
2022/11/05 03:09:31;;;;;;;5.03;3.40;;;10.50;78.60;;;13.27;57.46;101256.56;4900359;29;20195;-59
2022/11/05 03:12:13;;;;;;;10.83;3.93;;;10.60;78.20;;;13.30;56.84;101264.16;4900090;29;20267;-58
2022/11/05 03:14:55;;;;;;;8.60;4.17;;;10.60;77.30;;;13.30;56.92;101264.16;4899862;29;20203;-59
2022/11/05 03:17:35;;;;;;;4.97;3.37;;;10.60;77.00;;;13.28;56.51;101271.44;4900376;29;20188;-63
2022/11/05 03:20:18;;;;;;;8.20;3.90;;;10.60;76.60;;;13.22;56.46;101266.84;4900800;29;20198;-60
2022/11/05 03:22:57;;;;;;;7.00;3.50;;;10.50;76.30;;;13.17;56.36;101263.91;4900401;29;20700;-59
2022/11/05 03:25:28;;;;;;;6.63;3.53;;;10.50;76.50;;;13.16;56.33;101267.59;4900347;29;20191;-58
2022/11/05 03:28:04;;;;;;;7.63;3.20;;;10.40;76.50;;;13.10;56.40;101270.91;4900852;29;20630;-59
2022/11/05 03:30:35;;;;;;;8.60;3.33;;;10.40;76.40;;;13.05;56.36;101273.25;4900448;29;20194;-60
2022/11/05 03:33:10;;;;;;;10.43;4.37;;;10.30;76.40;;;12.96;56.42;101276.94;4902430;29;20262;-59
2022/11/05 03:35:46;;;;;;;7.97;3.47;;;10.30;76.60;;;12.89;56.40;101276.00;4900580;29;20739;-58
2022/11/05 03:38:21;;;;;;;6.23;3.90;;;10.20;76.60;;;12.82;56.65;101285.63;4900730;29;20255;-60
2022/11/05 03:40:56;;;;;;;4.97;3.20;;;10.10;76.60;;;12.74;56.71;101283.06;4901048;29;20227;-60
2022/11/05 03:43:28;;;;;;;6.83;3.83;;;10.00;76.70;;;12.66;56.77;101286.56;4901234;29;20279;-58
2022/11/05 03:46:01;;;;;;;5.53;3.33;;;10.00;76.90;;;12.61;56.83;101277.53;4902289;29;20199;-61
2022/11/05 03:48:32;;;;;;;7.37;3.10;;;9.90;78.10;;;12.58;57.08;101288.41;4903059;29;20256;-60
2022/11/05 03:51:10;;;;;;;6.93;2.83;;;9.90;78.30;;;12.55;57.04;101288.78;4900765;29;20574;-59
2022/11/05 03:53:45;;;;;;;8.13;3.17;;;9.80;78.60;;;12.56;57.16;101283.31;4901535;29;20195;-59
2022/11/05 03:56:22;;;;;;;4.40;3.00;;;9.80;78.90;;;12.57;57.57;101298.19;4901247;29;20235;-59
2022/11/05 03:58:50;;;;;;;5.90;3.10;;;9.80;79.40;;;12.66;57.87;101294.50;4907326;29;20214;-60
2022/11/05 04:01:25;;;;;;;8.57;2.77;;;9.90;79.90;;;12.75;57.66;101295.25;4909751;29;20278;-60
2022/11/05 04:03:53;;;;;;;7.80;3.10;;;9.90;79.60;;;12.79;57.54;101296.53;4910379;29;20283;-61
2022/11/05 04:14:39;;;;;;;5.90;2.63;;;10.10;77.50;;;12.91;57.13;101305.72;4915278;29;20207;-58
2022/11/05 04:17:06;;;;;;;6.47;3.50;;;10.10;77.50;;;12.89;57.07;101305.06;4900116;29;20763;-59
2022/11/05 04:25:06;;;;;;;5.77;2.77;;;10.20;77.50;;;12.97;57.30;101310.31;4881651;29;20249;-60
2022/11/05 04:27:33;;;;;;;7.33;3.17;;;10.20;77.50;;;13.04;56.84;101313.06;4897098;29;20207;-59
2022/11/05 04:30:17;;;;;;;7.27;3.20;;;10.30;77.20;;;13.01;56.12;101306.31;4898549;29;20653;-58
2022/11/05 04:33:00;;;;;;;5.60;3.20;;;10.30;76.30;;;12.87;56.22;101315.00;4898929;29;20229;-59
2022/11/05 04:35:29;;;;;;;11.77;3.37;;;10.30;75.90;;;12.78;56.63;101310.75;4898919;29;20202;-60
2022/11/05 04:37:57;;;;;;;8.33;3.90;;;10.30;75.70;;;12.71;56.73;101317.75;4899290;29;20244;-60
2022/11/05 04:40:25;;;;;;;5.57;2.97;;;10.20;75.80;;;12.65;56.73;101321.88;4898715;29;20210;-59
2022/11/05 04:42:54;;;;;;;3.97;3.00;;;10.10;76.00;;;12.58;57.00;101314.84;4904497;29;20757;-61
2022/11/05 04:45:22;;;;;;;6.17;2.90;;;10.10;76.30;;;12.55;57.46;101321.28;4897356;29;20659;-61
2022/11/05 04:47:49;;;;;;;6.90;3.20;;;10.00;76.40;;;12.51;57.19;101324.44;4894324;29;20248;-58
2022/11/05 04:50:16;;;;;;;9.50;3.37;;;10.00;76.50;;;12.44;57.39;101318.19;4880148;29;20682;-59
2022/11/05 04:52:43;;;;;;;7.90;3.70;;;9.90;77.70;;;12.36;57.60;101318.25;4880133;29;20220;-60
2022/11/05 04:55:12;;;;;;;6.57;2.77;;;9.80;77.80;;;12.34;57.86;101322.88;4894281;29;20203;-61
2022/11/05 04:57:39;;;;;;;7.13;3.27;;;9.80;78.10;;;12.30;57.48;101325.03;4898497;29;20196;-58
2022/11/05 05:00:09;;;;;;;6.10;3.03;;;9.80;78.00;;;12.30;58.23;101330.31;4898545;29;20196;-60
2022/11/05 05:02:38;;;;;;;6.70;3.30;;;9.70;79.10;;;12.27;58.18;101327.19;4897824;29;20294;-60
2022/11/05 05:05:05;;;;;;;6.17;3.30;;;9.70;78.60;;;12.16;58.06;101326.56;4898659;29;20206;-60
2022/11/05 05:07:33;;;;;;;5.90;3.63;;;9.70;78.40;;;12.16;58.07;101326.56;4898250;29;20250;-59
2022/11/05 05:10:00;;;;;;;5.47;3.37;;;9.70;78.60;;;12.16;58.26;101321.31;4898397;29;20201;-60
2022/11/05 05:12:28;;;;;;;9.07;3.70;;;9.70;78.40;;;12.13;58.15;101321.63;4897831;29;20230;-60
2022/11/05 05:14:56;;;;;;;4.77;3.30;;;9.60;78.50;;;12.01;58.62;101333.53;4897728;29;20621;-59
2022/11/05 05:17:24;;;;;;;4.20;2.60;;;9.60;78.60;;;12.00;58.17;101331.09;4898319;29;20534;-59
2022/11/05 05:22:36;;;;;;;5.97;3.67;;;9.50;80.00;;;12.15;59.40;101340.75;4897011;29;20222;-59
2022/11/05 05:25:04;;;;;;;9.87;5.17;;;9.50;80.20;;;12.29;59.09;101341.06;4898244;29;20734;-61
2022/11/05 05:27:32;;;;;;;6.27;3.80;;;9.60;80.30;;;12.41;58.50;101344.97;4897473;29;20203;-60
2022/11/05 05:29:59;;;;;;;5.50;3.80;;;9.70;80.00;;;12.49;58.28;101342.28;4897945;29;20616;-59
2022/11/05 05:32:26;;;;;;;7.47;4.43;;;9.80;79.70;;;12.60;58.29;101347.19;4897598;29;20219;-59
2022/11/05 05:34:53;;;;;;;7.27;3.33;;;9.90;79.60;;;12.65;57.88;101344.81;4898109;29;20545;-58
2022/11/05 05:37:20;;;;;;;6.93;4.40;;;9.90;79.00;;;12.67;57.53;101345.50;4897548;29;20544;-57
2022/11/05 05:39:48;;;;;;;7.23;4.17;;;9.90;78.90;;;12.71;57.75;101342.34;4898200;29;20207;-58
2022/11/05 05:42:15;;;;;;;7.43;4.50;;;9.90;79.00;;;12.75;57.56;101342.81;4898760;29;20227;-60
2022/11/05 05:44:43;;;;;;;5.30;3.43;;;10.00;77.80;;;12.82;57.62;101359.59;4898499;29;20262;-57
2022/11/05 05:47:12;;;;;;;5.40;3.60;;;10.10;77.70;;;12.86;57.09;101364.38;4898397;29;20237;-58
2022/11/05 05:49:39;;;;;;;5.67;3.30;;;10.10;77.40;;;12.91;56.83;101363.84;4898295;29;20270;-60
2022/11/05 05:52:06;;;;;;;4.73;3.40;;;10.10;77.00;;;12.90;56.97;101359.56;4899159;29;20223;-60
2022/11/05 05:54:33;;;;;;;7.37;3.47;;;10.20;77.00;;;12.92;56.81;101365.50;4898295;29;20195;-61
2022/11/05 05:57:08;;;;;;;5.70;3.33;;;10.20;76.70;;;12.93;56.82;101357.38;4898336;29;20564;-61
2022/11/05 05:59:35;;;;;;;6.20;3.67;;;10.30;76.70;;;12.96;56.85;101364.16;4898464;29;20191;-60
2022/11/05 06:02:03;;;;;;;6.03;3.30;;;10.30;76.70;;;12.97;56.64;101362.34;4898269;29;20302;-60
2022/11/05 06:04:31;;;;;;;5.53;3.70;;;10.30;76.40;;;12.99;56.60;101366.44;4897458;29;20218;-60
2022/11/05 06:06:58;;;;;;;5.90;3.53;;;10.30;76.60;;;12.96;56.11;101372.06;4897319;29;20288;-59
2022/11/05 06:09:25;;;;;;;5.03;3.20;;;10.30;75.80;;;12.91;56.31;101371.75;4897596;29;20200;-59
2022/11/05 06:11:52;;;;;;;9.17;3.63;;;10.30;75.70;;;12.88;56.62;101374.78;4897218;29;20269;-59
2022/11/05 06:14:19;;;;;;;5.70;3.83;;;10.20;76.20;;;12.85;56.34;101381.22;4897509;29;20255;-61
2022/11/05 06:16:45;;;;;;;4.63;3.53;;;10.20;76.00;;;12.75;56.17;101374.50;4897662;29;20199;-60
2022/11/05 06:19:14;;;;;;;7.17;3.33;;;10.10;75.60;;;12.71;56.74;101378.50;4897550;29;20285;-60
2022/11/05 06:21:41;;;;;;;6.47;3.63;;;10.10;76.50;;;12.71;56.59;101368.75;4897243;29;20251;-59
2022/11/05 06:24:09;;;;;;;6.87;3.90;;;10.10;76.60;;;12.73;56.85;101373.84;4897181;29;20218;-60
2022/11/05 06:26:41;;;;;;;3.73;3.10;;;10.10;76.80;;;12.75;56.99;101377.97;4900986;29;20712;-60
2022/11/05 06:29:09;;;;;;;7.23;3.80;;;10.10;77.00;;;12.77;56.76;101377.78;4901217;29;20203;-60
2022/11/05 06:31:36;;;;;;;5.63;4.10;;;10.10;76.60;;;12.74;56.56;101383.44;4901199;29;20223;-57
2022/11/05 06:34:03;;;;;;;5.87;3.57;;;10.00;76.30;;;12.70;56.55;101379.47;4902898;29;20204;-60
2022/11/05 06:36:32;;;;;;;6.53;3.70;;;10.00;76.30;;;12.67;56.86;101388.56;4903792;29;20199;-58
2022/11/05 06:38:59;;;;;;;5.20;3.30;;;10.00;76.80;;;12.67;57.11;101388.56;4901054;29;20270;-58
2022/11/05 06:41:26;;;;;;;6.60;3.83;;;10.00;76.80;;;12.67;57.04;101387.75;4900325;29;20697;-60
2022/11/05 06:43:53;;;;;;;5.27;3.27;;;10.00;76.70;;;12.67;57.15;101395.69;4900832;29;20231;-60
2022/11/05 06:46:20;;;;;;;8.43;3.23;;;10.00;77.00;;;12.70;57.08;101400.59;4901115;29;20207;-58
2022/11/05 06:48:49;;;;;;;6.00;3.70;;;10.00;77.10;;;12.70;56.91;101403.25;4900802;29;20203;-61
2022/11/05 06:51:17;;;;;;;3.50;3.20;;;10.00;76.80;;;12.72;56.93;101401.25;4900360;29;20225;-59
2022/11/05 06:53:45;;;;;;;4.67;3.23;;;10.00;76.90;;;12.73;56.77;101409.03;4900968;29;20216;-60
2022/11/05 06:56:12;;;;;;;5.43;3.63;;;10.00;76.60;;;12.71;56.70;101411.03;4899947;29;20196;-61
2022/11/05 06:58:39;;;;;;;6.87;3.70;;;10.00;76.30;;;12.71;57.17;101420.75;4899946;29;20199;-61
2022/11/05 07:01:09;;;;;;;6.93;3.67;;;10.00;77.00;;;12.72;56.60;101428.50;4900274;29;20625;-57
2022/11/05 07:03:37;;;;;;;5.13;3.03;;;10.00;76.60;;;12.73;56.76;101424.03;4900240;29;20274;-60
2022/11/05 07:06:06;;;;;;;4.10;3.07;;;10.00;77.00;;;12.75;56.54;101429.97;4900015;29;20263;-60
2022/11/05 07:08:35;;;;;;;5.73;3.77;;;10.00;76.70;;;12.80;56.96;101435.56;4900391;29;20602;-59
2022/11/05 07:11:04;;;;;;;5.63;3.90;;;10.00;77.00;;;12.74;56.74;101436.28;4900104;29;20676;-60
2022/11/05 07:13:31;;;;;;;5.33;3.53;;;10.10;76.40;;;12.79;56.57;101436.56;4900130;29;20330;-59
2022/11/05 07:15:58;;;;;;;6.60;5.17;;;10.10;76.50;;;12.82;56.52;101439.69;4900294;29;20207;-59
2022/11/05 07:18:25;;;;;;;5.33;3.57;;;10.10;76.60;;;12.85;56.68;101443.81;4900135;29;20282;-60
2022/11/05 07:20:52;;;;;;;6.50;3.60;;;10.10;76.30;;;12.84;56.04;101436.84;4899814;29;20263;-60
2022/11/05 07:23:19;;;;;;;6.53;4.00;;;10.10;76.10;;;12.83;56.24;101445.81;4900834;29;20263;-59
2022/11/05 07:25:46;;;;;;;4.63;3.50;;;10.10;76.20;;;12.81;56.10;101443.31;4900154;29;20212;-60
2022/11/05 07:28:14;;;;;;;5.13;3.43;;;10.00;76.10;;;12.79;56.28;101445.31;4900097;29;20206;-59
2022/11/05 07:30:41;;;;;;;4.73;3.53;;;10.00;76.90;;;12.81;56.19;101442.50;4899693;29;20691;-60
2022/11/05 07:33:08;;;;;;;6.17;3.37;;;10.00;76.50;;;12.80;56.27;101446.13;4899799;29;20210;-59
2022/11/05 07:35:36;;;;;;;3.83;3.43;;;10.00;76.40;;;12.82;56.71;101444.97;4899467;29;20203;-60
2022/11/05 07:38:03;;;;;;;5.50;3.73;;;10.00;77.00;;;12.88;56.67;101448.75;4899263;29;20254;-60
2022/11/05 07:40:30;;;;;;;12.30;7.23;;;10.10;77.00;;;12.94;56.56;101442.75;4899716;29;20201;-58
2022/11/05 07:43:00;;;;;;;7.87;5.20;;;10.10;77.30;;;13.02;56.39;101450.66;4899680;29;20202;-59
2022/11/05 07:45:30;;;;;;;4.73;4.03;;;10.10;76.90;;;13.06;56.23;101457.28;4899901;29;20238;-58
2022/11/05 07:47:59;;;;;;;4.63;3.80;;;10.20;76.70;;;12.98;56.15;101454.63;4899675;29;20194;-59
2022/11/05 07:50:29;;;;;;;7.23;4.67;;;10.20;76.20;;;12.94;56.39;101448.06;4899267;29;20199;-59
2022/11/05 07:53:01;;;;;;;7.83;4.73;;;10.20;76.40;;;12.90;56.26;101452.88;4899399;29;20200;-60
2022/11/05 07:55:29;;;;;;;5.10;4.40;;;10.30;76.40;;;12.93;56.37;101455.16;4899062;29;20211;-59
2022/11/05 07:57:56;;;;;;;6.57;3.80;;;10.30;77.20;;;13.01;56.73;101454.28;4900183;29;20203;-59
2022/11/05 08:00:25;;;;;;;4.77;3.83;;;10.30;76.70;;;13.09;56.75;101451.66;4899462;29;20528;-59
2022/11/05 08:03:00;;;;;;;5.60;4.67;;;10.30;77.30;;;13.23;56.63;101447.44;4899324;29;20309;-59
2022/11/05 08:05:36;;;;;;;5.10;4.00;;;10.40;77.30;;;13.31;56.04;101452.69;4899048;29;20215;-59
2022/11/05 08:08:04;;;;;;;6.73;3.90;;;10.50;76.60;;;13.39;56.18;101452.63;4899796;29;20651;-61
2022/11/05 08:10:32;;;;;;;5.40;3.63;;;10.60;76.60;;;13.43;55.75;101457.38;4899482;29;20493;-61
2022/11/05 08:13:00;;;;;;;4.60;3.53;;;10.60;75.90;;;13.38;55.75;101451.78;4899369;29;20283;-60
2022/11/05 08:15:28;;;;;;;5.93;3.27;;;10.70;75.70;;;13.34;55.88;101455.78;4900258;29;20262;-59
2022/11/05 08:18:00;;;;;;;7.33;3.83;;;10.70;75.60;;;13.33;55.98;101454.16;4899151;29;20206;-61
2022/11/05 08:20:27;;;;;;;6.93;3.70;;;10.70;75.70;;;13.37;55.96;101458.09;4899269;29;20274;-60
2022/11/05 08:22:55;;;;;;;7.83;3.93;;;10.70;75.80;;;13.37;56.02;101455.44;4899201;29;20222;-59
2022/11/05 08:25:22;;;;;;;6.30;3.93;;;10.70;75.80;;;13.39;56.18;101456.09;4898872;29;20584;-59
2022/11/05 08:27:55;;;;;;;4.23;3.63;;;10.70;75.80;;;13.41;56.26;101466.50;4899060;29;20203;-59
2022/11/05 08:30:22;;;;;;;4.60;3.47;;;10.70;76.00;;;13.44;56.17;101466.97;4898765;29;20582;-59
2022/11/05 08:32:49;;;;;;;6.97;4.23;;;10.70;76.00;;;13.54;56.12;101472.88;4905019;29;20237;-58
2022/11/05 08:35:19;;;;;;;7.00;3.97;;;10.80;76.20;;;13.67;55.88;101471.47;4900691;29;20204;-58
2022/11/05 08:37:46;;;;;;;5.43;3.43;;;10.80;76.30;;;13.85;55.83;101469.34;4899477;29;20200;-59
2022/11/05 08:40:13;;;;;;;7.07;3.83;;;11.00;76.50;;;14.00;55.49;101467.56;4898315;29;20560;-61
2022/11/05 08:42:40;;;;;;;5.40;3.70;;;11.10;76.10;;;14.14;55.30;101466.78;4898454;29;20219;-61
2022/11/05 08:45:08;;;;;;;4.20;3.70;;;11.30;75.80;;;14.36;54.56;101465.91;4899390;29;20274;-59
2022/11/05 08:47:35;;;;;;;6.00;4.10;;;11.40;75.10;;;14.78;54.01;101463.47;4898260;29;20601;-61
2022/11/05 08:50:03;;;;;;;4.73;3.03;;;11.70;74.90;;;15.39;53.31;101474.59;4898742;29;20559;-59
2022/11/05 08:52:31;;;;;;;3.97;3.47;;;12.10;75.10;;;15.88;51.73;101467.53;4898398;29;20237;-61
2022/11/05 08:54:58;;;;;;;5.23;3.70;;;12.50;73.20;;;16.51;51.08;101473.75;4897390;29;20187;-61
2022/11/05 08:57:26;;;;;;;5.67;3.17;;;12.90;73.20;;;17.16;48.94;101466.13;4898367;29;20671;-61
2022/11/05 08:59:53;;;;;;;7.67;3.77;;;13.30;71.10;;;17.53;48.58;101476.28;4898211;29;20195;-60
2022/11/05 09:02:20;;;;;;;7.00;4.17;;;13.80;70.00;;;17.68;47.22;101469.97;4903952;29;20282;-60
2022/11/05 09:04:47;;;;;;;3.90;2.90;;;14.30;67.40;;;17.86;46.56;101480.84;4899443;29;20225;-59
2022/11/05 09:07:14;;;;;;;3.37;2.87;;;14.50;66.30;;;17.96;46.03;101467.94;4898288;29;20207;-60
2022/11/05 09:09:42;;;;;;;4.93;3.40;;;14.70;65.00;;;18.19;46.04;101474.50;4898084;29;20642;-59
2022/11/05 09:12:09;;;;;;;4.40;2.93;;;14.90;65.10;;;18.55;45.69;101466.06;4897760;29;20219;-58
2022/11/05 09:14:39;;;;;;;4.07;2.40;;;15.10;65.10;;;18.94;45.44;101473.94;4897499;29;20203;-61
2022/11/05 09:17:15;;;;;;;7.13;3.70;;;15.30;65.60;;;19.30;44.47;101475.25;4898835;29;20660;-59
2022/11/05 09:19:43;;;;;;;7.00;3.50;;;15.50;64.20;;;19.45;43.19;101478.44;4897937;29;20201;-60
2022/11/05 09:22:11;;;;;;;4.67;2.83;;;15.60;62.60;;;19.35;43.03;101472.75;4898026;29;20231;-58
2022/11/05 09:24:39;;;;;;;3.53;2.87;;;15.70;61.90;;;19.21;43.01;101468.47;4898350;29;20223;-59
2022/11/05 09:27:17;;;;;;;4.33;3.27;;;15.70;61.20;;;19.08;43.33;101471.22;4898713;29;20196;-61
2022/11/05 09:29:44;;;;;;;4.33;2.67;;;15.70;60.90;;;19.04;43.27;101470.03;4898116;29;20203;-63
2022/11/05 09:32:11;;;;;;;3.90;2.93;;;15.70;61.00;;;18.91;43.03;101473.56;4897717;29;20211;-61
2022/11/05 09:34:38;;;;;;;5.57;2.90;;;15.60;60.60;;;18.69;43.53;101470.34;4879886;29;20196;-61
2022/11/05 09:37:05;;;;;;;4.43;2.73;;;15.50;60.60;;;18.60;43.78;101484.94;4889558;29;20226;-58
2022/11/05 09:39:32;;;;;;;7.03;3.07;;;15.50;60.70;;;18.50;43.88;101468.53;4898661;29;20199;-60
2022/11/05 09:42:07;;;;;;;7.47;4.30;;;15.40;61.20;;;18.37;44.06;101476.53;4897818;29;20585;-58
2022/11/05 09:44:42;;;;;;;5.07;3.23;;;15.30;61.30;;;18.28;44.48;101480.41;4897851;29;20214;-58
2022/11/05 09:47:19;;;;;;;3.67;3.03;;;15.30;61.60;;;18.14;44.45;101478.78;4897788;29;20207;-61
2022/11/05 09:49:50;;;;;;;4.40;2.60;;;15.20;62.20;;;17.99;44.74;101491.50;4898186;29;20268;-59
2022/11/05 09:52:24;;;;;;;4.00;3.10;;;15.10;61.60;;;17.88;45.02;101481.44;4897132;29;20223;-60
2022/11/05 09:54:53;;;;;;;5.90;3.03;;;15.00;62.00;;;17.90;45.37;101493.53;4895926;29;20176;-60
2022/11/05 09:57:28;;;;;;;5.80;2.97;;;14.90;62.30;;;17.87;45.29;101491.31;4898828;29;20568;-61
2022/11/05 10:00:00;;;;;;;6.33;3.53;;;14.90;62.60;;;17.68;45.42;101483.28;4899242;29;20274;-61
2022/11/05 10:02:31;;;;;;;4.63;2.60;;;14.80;62.50;;;17.75;45.65;101497.44;4900184;29;20237;-59
2022/11/05 10:05:04;;;;;;;5.10;3.30;;;14.80;62.80;;;17.91;44.97;101483.72;4883010;29;20685;-60
2022/11/05 10:07:44;;;;;;;4.00;3.50;;;14.80;62.60;;;18.41;44.63;101499.09;4897205;29;20635;-61
2022/11/05 10:10:31;;;;;;;4.90;2.90;;;15.00;63.00;;;18.97;43.70;101495.91;4901332;29;20198;-61
2022/11/05 10:13:20;;;;;;;4.77;3.07;;;15.20;63.40;;;19.15;42.04;101493.38;4901549;29;20243;-58
2022/11/05 10:15:58;;;;;;;4.27;3.30;;;15.40;62.10;;;19.17;42.99;101493.97;4900965;29;20256;-59
2022/11/05 10:18:31;;;;;;;4.10;3.47;;;15.60;61.60;;;19.14;42.99;101492.53;4899460;29;20211;-61
2022/11/05 10:20:59;;;;;;;4.93;3.13;;;15.70;61.00;;;19.10;42.75;101502.00;4900657;29;20223;-60
2022/11/05 10:23:27;;;;;;;4.57;3.07;;;15.80;60.30;;;18.99;42.93;101504.53;4901506;29;20203;-60
2022/11/05 10:26:00;;;;;;;6.40;2.70;;;15.90;60.30;;;18.88;43.42;101493.47;4900652;29;20609;-60
2022/11/05 10:28:32;;;;;;;5.33;2.77;;;15.80;60.50;;;18.81;43.61;101502.50;4900540;29;20199;-58
2022/11/05 10:31:05;;;;;;;4.83;3.93;;;15.80;60.80;;;18.65;43.84;101503.78;4900191;29;20222;-61
2022/11/05 10:33:38;;;;;;;8.00;3.93;;;15.80;60.10;;;18.41;43.77;101504.41;4901274;29;20180;-61
2022/11/05 10:36:11;;;;;;;5.90;3.77;;;15.70;60.00;;;18.28;44.48;101507.06;4900762;29;20258;-60
2022/11/05 10:38:38;;;;;;;8.93;4.77;;;15.70;60.40;;;18.26;44.58;101503.81;4901237;29;20338;-58
2022/11/05 10:41:29;;;;;;;3.77;2.90;;;15.60;60.70;;;18.19;44.74;101510.97;4899360;29;20716;-61
2022/11/05 10:44:16;;;;;;;7.33;4.00;;;15.60;61.00;;;18.27;44.67;101505.44;4900563;29;20227;-61
2022/11/05 10:46:55;;;;;;;4.10;3.07;;;15.50;61.10;;;18.47;44.63;101508.13;4900532;29;20616;-60
2022/11/05 10:49:42;;;;;;;4.00;2.87;;;15.60;61.20;;;19.07;43.41;101505.09;4900187;29;20195;-59
2022/11/05 10:52:23;;;;;;;3.23;2.67;;;15.80;61.40;;;19.64;42.89;101509.56;4900334;29;20614;-59
2022/11/05 10:54:55;;;;;;;4.20;2.93;;;16.10;61.50;;;19.68;41.62;101510.78;4900234;29;20248;-61
2022/11/05 10:57:33;;;;;;;6.67;3.63;;;16.20;59.30;;;19.29;42.45;101505.63;4900405;29;20192;-58
2022/11/05 11:00:27;;;;;;;7.33;3.53;;;16.30;58.80;;;18.77;42.98;101512.78;4900826;29;20255;-58
2022/11/05 11:02:57;;;;;;;4.63;3.17;;;16.20;58.70;;;18.66;43.56;101509.97;4898165;29;20278;-61
2022/11/05 11:05:29;;;;;;;5.53;3.40;;;16.20;59.10;;;18.63;43.87;101516.53;4900371;29;20270;-61
2022/11/05 11:08:02;;;;;;;4.53;3.70;;;16.10;59.40;;;18.61;43.60;101518.56;4900396;29;20234;-59
2022/11/05 11:10:39;;;;;;;5.77;3.20;;;16.00;59.70;;;18.58;44.19;101512.84;4899010;29;20249;-60
2022/11/05 11:13:19;;;;;;;4.53;3.13;;;15.90;60.00;;;18.49;43.92;101509.56;4899282;29;20254;-62
2022/11/05 11:15:49;;;;;;;4.07;3.10;;;15.80;60.30;;;18.40;44.35;101510.75;4898191;29;20195;-63